createdAt,value
2023-02-06T00:01:37.853Z,2.55
2023-02-06T00:04:05.072Z,3.00
2023-02-06T00:06:32.537Z,2.50
2023-02-06T00:08:59.298Z,2.78
2023-02-06T00:11:26.168Z,2.42
2023-02-06T00:13:53.575Z,2.58
2023-02-06T00:16:27.501Z,1.90
2023-02-06T00:18:56.504Z,2.33
2023-02-06T00:21:26.198Z,1.98
2023-02-06T00:23:55.240Z,2.45
2023-02-06T00:26:22.808Z,2.60
2023-02-06T00:28:49.636Z,2.33
2023-02-06T00:31:17.596Z,2.90
2023-02-06T00:33:44.435Z,2.38
2023-02-06T00:36:11.451Z,2.90
2023-02-06T00:38:38.573Z,2.50
2023-02-06T00:41:05.703Z,2.40
2023-02-06T00:43:32.729Z,2.92
2023-02-06T00:45:59.553Z,2.85
2023-02-06T00:48:26.332Z,3.45
2023-02-06T00:50:54.139Z,2.45
2023-02-06T00:53:21.704Z,2.97
2023-02-06T00:55:48.441Z,3.25
2023-02-06T00:58:15.261Z,2.65
2023-02-06T01:00:42.052Z,2.85
2023-02-06T01:03:08.874Z,2.85
2023-02-06T01:05:36.675Z,3.10
2023-02-06T01:08:04.603Z,2.97
2023-02-06T01:10:32.746Z,4.13
2023-02-06T01:12:59.536Z,5.05
2023-02-06T01:15:26.290Z,3.80
2023-02-06T01:17:53.097Z,3.60
2023-02-06T01:20:21.610Z,3.15
2023-02-06T01:22:48.553Z,4.53
2023-02-06T01:25:15.534Z,3.85
2023-02-06T01:27:42.360Z,4.30
2023-02-06T01:30:10.348Z,4.18
2023-02-06T01:32:39.671Z,4.43
2023-02-06T01:35:09.109Z,3.80
2023-02-06T01:37:36.872Z,3.92
2023-02-06T01:40:06.689Z,4.95
2023-02-06T01:42:38.457Z,4.90
2023-02-06T01:45:26.591Z,4.63
2023-02-06T01:48:06.470Z,5.10
2023-02-06T01:50:36.340Z,4.63
2023-02-06T01:53:05.270Z,6.05
2023-02-06T01:55:32.867Z,4.93
2023-02-06T01:58:01.287Z,4.82
2023-02-06T02:00:28.189Z,4.38
2023-02-06T02:02:55.105Z,3.90
2023-02-06T02:05:22.170Z,5.43
2023-02-06T02:08:01.226Z,6.00
2023-02-06T02:10:32.361Z,4.43
2023-02-06T02:12:59.171Z,4.32
2023-02-06T02:16:17.409Z,5.53
2023-02-06T02:19:21.215Z,5.38
2023-02-06T02:22:06.725Z,4.03
2023-02-06T02:25:17.739Z,5.97
2023-02-06T02:28:24.361Z,5.53
2023-02-06T02:31:33.335Z,4.88
2023-02-06T02:34:40.142Z,4.50
2023-02-06T02:37:34.156Z,4.13
2023-02-06T02:40:39.950Z,5.28
2023-02-06T02:43:18.602Z,5.43
2023-02-06T02:46:48.473Z,5.13
2023-02-06T02:49:24.121Z,4.97
2023-02-06T02:51:51.979Z,4.63
2023-02-06T02:54:19.009Z,4.30
2023-02-06T02:56:45.802Z,4.93
2023-02-06T02:59:29.135Z,5.97
2023-02-06T03:02:00.051Z,4.82
2023-02-06T03:05:02.240Z,5.72
2023-02-06T03:07:47.304Z,6.85
2023-02-06T03:10:39.392Z,5.70
2023-02-06T03:13:35.051Z,4.93
2023-02-06T03:16:20.728Z,5.15
2023-02-06T03:19:06.297Z,5.43
2023-02-06T03:21:36.368Z,4.43
2023-02-06T03:24:10.764Z,5.28
2023-02-06T03:26:38.500Z,5.90
2023-02-06T03:29:10.009Z,6.10
2023-02-06T03:31:56.999Z,7.28
2023-02-06T03:34:28.556Z,6.65
2023-02-06T03:36:55.456Z,6.75
2023-02-06T03:39:23.196Z,5.90
2023-02-06T03:41:51.563Z,6.03
2023-02-06T03:44:25.073Z,5.05
2023-02-06T03:46:55.325Z,5.53
2023-02-06T03:49:25.204Z,5.60
2023-02-06T03:51:58.446Z,6.45
2023-02-06T03:54:26.679Z,6.20
2023-02-06T03:56:59.742Z,5.53
2023-02-06T03:59:26.680Z,5.75
2023-02-06T04:01:58.065Z,4.75
2023-02-06T04:04:32.941Z,5.65
2023-02-06T04:07:05.699Z,5.70
2023-02-06T04:11:59.044Z,6.63
2023-02-06T04:14:25.925Z,6.22
2023-02-06T04:16:52.663Z,6.28
2023-02-06T04:19:19.457Z,6.13
2023-02-06T04:21:46.196Z,6.20
2023-02-06T04:24:12.919Z,6.13
2023-02-06T04:26:39.663Z,6.07
2023-02-06T04:29:06.509Z,6.15
2023-02-06T04:31:33.385Z,5.97
2023-02-06T04:34:00.148Z,5.18
2023-02-06T04:36:26.960Z,5.60
2023-02-06T04:38:53.706Z,5.78
2023-02-06T04:41:20.484Z,5.07
2023-02-06T04:43:47.225Z,4.88
2023-02-06T04:46:13.959Z,5.45
2023-02-06T04:48:40.781Z,5.55
2023-02-06T04:51:07.501Z,5.85
2023-02-06T04:53:34.377Z,6.47
2023-02-06T04:56:07.208Z,5.78
2023-02-06T05:01:35.886Z,4.93
2023-02-06T05:04:02.721Z,4.88
2023-02-06T05:06:31.243Z,6.32
2023-02-06T05:08:59.899Z,4.18
2023-02-06T05:11:27.143Z,6.38
2023-02-06T05:13:54.018Z,6.03
2023-02-06T05:16:20.925Z,5.05
2023-02-06T05:18:47.704Z,4.88
2023-02-06T05:21:16.363Z,4.53
2023-02-06T05:23:43.129Z,4.78
2023-02-06T05:26:09.933Z,4.10
2023-02-06T05:28:36.742Z,4.35
2023-02-06T05:31:04.819Z,4.25
2023-02-06T05:33:31.788Z,5.43
2023-02-06T05:36:06.674Z,4.05
2023-02-06T05:38:34.549Z,4.60
2023-02-06T05:41:01.368Z,4.10
2023-02-06T05:43:28.133Z,5.13
2023-02-06T05:45:55.125Z,5.43
2023-02-06T05:48:22.002Z,4.63
2023-02-06T05:50:49.870Z,4.68
2023-02-06T05:53:17.782Z,4.85
2023-02-06T05:55:44.589Z,5.88
2023-02-06T05:58:12.397Z,5.18
2023-02-06T06:00:39.321Z,5.10
2023-02-06T06:03:06.126Z,5.25
2023-02-06T06:05:33.671Z,4.60
2023-02-06T06:08:00.717Z,5.47
2023-02-06T06:10:27.692Z,5.32
2023-02-06T06:12:54.480Z,5.15
2023-02-06T06:15:21.245Z,4.85
2023-02-06T06:17:47.981Z,4.10
2023-02-06T06:20:14.781Z,5.30
2023-02-06T06:22:41.620Z,5.32
2023-02-06T06:25:08.642Z,4.97
2023-02-06T06:27:35.402Z,5.45
2023-02-06T06:30:02.187Z,5.03
2023-02-06T06:32:28.969Z,5.18
2023-02-06T06:34:55.719Z,4.63
2023-02-06T06:37:22.553Z,6.05
2023-02-06T06:39:49.317Z,5.97
2023-02-06T06:42:16.057Z,5.82
2023-02-06T06:44:42.781Z,5.25
2023-02-06T06:47:10.916Z,6.13
2023-02-06T06:49:37.692Z,6.45
2023-02-06T06:52:08.865Z,4.97
2023-02-06T06:54:40.270Z,5.53
2023-02-06T06:57:07.125Z,12.98
2023-02-06T06:59:34.022Z,9.75
2023-02-06T07:02:00.894Z,7.15
2023-02-06T07:04:31.525Z,5.53
2023-02-06T07:06:58.344Z,6.93
2023-02-06T07:09:25.408Z,7.35
2023-02-06T07:11:52.190Z,5.57
2023-02-06T07:14:18.990Z,6.95
2023-02-06T07:16:45.822Z,5.70
2023-02-06T07:19:12.745Z,4.93
2023-02-06T07:21:39.574Z,4.93
2023-02-06T07:24:06.810Z,6.35
2023-02-06T07:26:33.583Z,6.78
2023-02-06T07:29:00.534Z,4.93
2023-02-06T07:31:27.291Z,5.13
2023-02-06T07:33:54.040Z,5.70
2023-02-06T07:36:20.832Z,6.10
2023-02-06T07:38:47.630Z,4.90
2023-02-06T07:41:14.593Z,6.07
2023-02-06T07:43:41.392Z,6.35
2023-02-06T07:46:08.216Z,5.82
2023-02-06T07:48:35.013Z,6.43
2023-02-06T07:51:08.744Z,3.60
2023-02-06T07:53:36.848Z,4.95
2023-02-06T07:56:14.685Z,5.32
2023-02-06T07:58:41.553Z,5.50
2023-02-06T08:01:08.932Z,5.05
2023-02-06T08:03:36.210Z,4.75
2023-02-06T08:06:09.812Z,4.03
2023-02-06T08:08:36.574Z,4.38
2023-02-06T08:11:12.700Z,4.55
2023-02-06T08:13:39.837Z,4.25
2023-02-06T08:16:10.954Z,4.55
2023-02-06T08:18:38.253Z,4.55
2023-02-06T08:21:26.657Z,4.70
2023-02-06T08:23:59.920Z,3.63
2023-02-06T08:26:29.826Z,3.03
2023-02-06T08:28:58.773Z,4.00
2023-02-06T08:31:31.163Z,4.43
2023-02-06T08:33:58.041Z,4.20
2023-02-06T08:36:26.127Z,4.55
2023-02-06T08:38:53.349Z,4.25
2023-02-06T08:41:24.928Z,3.53
2023-02-06T08:43:55.670Z,4.47
2023-02-06T08:46:25.336Z,4.85
2023-02-06T08:49:08.961Z,5.13
2023-02-06T08:51:36.897Z,4.93
2023-02-06T08:54:07.754Z,4.47
2023-02-06T08:56:36.435Z,3.97
2023-02-06T08:59:04.985Z,4.28
2023-02-06T09:01:34.590Z,5.95
2023-02-06T09:04:06.527Z,5.65
2023-02-06T09:06:36.610Z,4.77
2023-02-06T09:09:05.369Z,5.15
2023-02-06T09:11:32.331Z,5.70
2023-02-06T09:14:02.304Z,4.72
2023-02-06T09:16:32.538Z,5.57
2023-02-06T09:19:01.557Z,4.70
2023-02-06T09:21:31.557Z,5.72
2023-02-06T09:24:02.083Z,4.75
2023-02-06T09:26:50.283Z,5.18
2023-02-06T09:29:24.272Z,5.70
2023-02-06T09:31:51.095Z,5.82
2023-02-06T09:34:17.881Z,5.45
2023-02-06T09:36:44.953Z,5.45
2023-02-06T09:39:11.808Z,6.22
2023-02-06T09:41:55.504Z,4.13
2023-02-06T09:44:37.040Z,4.07
2023-02-06T09:47:28.901Z,5.50
2023-02-06T09:50:07.605Z,4.20
2023-02-06T09:52:58.439Z,5.90
2023-02-06T09:56:15.397Z,5.13
2023-02-06T09:58:51.637Z,4.82
2023-02-06T10:01:41.674Z,5.20
2023-02-06T10:04:40.705Z,5.13
2023-02-06T10:07:19.318Z,5.78
2023-02-06T10:09:56.179Z,5.20
2023-02-06T10:12:31.513Z,3.58
2023-02-06T10:15:16.940Z,5.18
2023-02-06T10:18:11.674Z,4.47
2023-02-06T10:20:51.608Z,3.95
2023-02-06T10:23:39.726Z,4.88
2023-02-06T10:26:23.515Z,5.22
2023-02-06T10:28:57.180Z,4.03
2023-02-06T10:31:53.172Z,3.90
2023-02-06T10:34:47.799Z,3.67
2023-02-06T10:38:08.134Z,4.93
2023-02-06T10:40:34.871Z,3.42
2023-02-06T10:43:28.476Z,4.43
2023-02-06T10:46:19.959Z,4.63
2023-02-06T10:49:24.110Z,3.97
2023-02-06T10:51:56.274Z,4.03
2023-02-06T10:54:49.510Z,4.13
2023-02-06T10:59:56.106Z,3.72
2023-02-06T11:02:39.422Z,4.95
2023-02-06T11:05:23.222Z,5.50
2023-02-06T11:08:08.085Z,3.90
2023-02-06T11:10:35.202Z,4.47
2023-02-06T11:13:14.112Z,5.25
2023-02-06T11:16:03.049Z,4.45
2023-02-06T11:18:40.670Z,3.65
2023-02-06T11:21:09.924Z,3.92
2023-02-06T11:23:36.843Z,4.57
2023-02-06T11:26:15.608Z,4.22
2023-02-06T11:28:56.106Z,4.22
2023-02-06T11:31:45.615Z,5.20
2023-02-06T11:34:33.471Z,3.35
2023-02-06T11:37:06.816Z,4.15
2023-02-06T11:39:38.395Z,3.72
2023-02-06T11:42:15.405Z,2.90
2023-02-06T11:44:45.498Z,2.88
2023-02-06T11:47:37.435Z,3.38
2023-02-06T11:50:13.426Z,3.47
2023-02-06T11:52:46.574Z,6.00
2023-02-06T11:55:36.794Z,4.45
2023-02-06T11:58:09.728Z,3.67
2023-02-06T12:00:38.147Z,3.92
2023-02-06T12:03:05.802Z,3.97
2023-02-06T12:05:42.674Z,4.97
2023-02-06T12:08:17.339Z,4.13
2023-02-06T12:10:58.722Z,4.97
2023-02-06T12:13:34.119Z,4.05
2023-02-06T12:16:04.522Z,4.93
2023-02-06T12:18:40.593Z,3.78
2023-02-06T12:21:20.261Z,3.97
2023-02-06T12:23:55.659Z,4.45
2023-02-06T12:26:27.817Z,3.78
2023-02-06T12:29:15.281Z,3.83
2023-02-06T12:32:18.495Z,3.42
2023-02-06T12:35:00.548Z,4.30
2023-02-06T12:37:41.591Z,4.07
2023-02-06T12:40:47.281Z,4.55
2023-02-06T12:43:16.725Z,5.53
2023-02-06T12:46:01.792Z,2.70
2023-02-06T12:49:13.193Z,3.90
2023-02-06T12:51:53.768Z,4.07
2023-02-06T12:54:34.138Z,4.00
2023-02-06T12:57:15.811Z,3.78
2023-02-06T13:00:20.925Z,4.97
2023-02-06T13:03:35.362Z,4.65
2023-02-06T13:06:25.946Z,4.95
2023-02-06T13:09:00.853Z,4.50
2023-02-06T13:11:39.205Z,5.03
2023-02-06T13:14:18.416Z,4.00
2023-02-06T13:16:59.746Z,4.95
2023-02-06T13:19:37.436Z,3.75
2023-02-06T13:22:10.468Z,5.22
2023-02-06T13:24:42.607Z,3.75
2023-02-06T13:27:09.269Z,4.40
2023-02-06T13:29:48.938Z,3.97
2023-02-06T13:32:15.637Z,5.45
2023-02-06T13:34:45.106Z,4.30
2023-02-06T13:37:39.077Z,4.10
2023-02-06T13:40:24.052Z,4.80
2023-02-06T13:43:19.581Z,4.95
2023-02-06T13:45:58.697Z,4.35
2023-02-06T13:48:56.813Z,3.28
2023-02-06T13:51:29.296Z,4.47
2023-02-06T13:54:44.514Z,4.65
2023-02-06T13:57:39.762Z,3.67
2023-02-06T14:00:21.224Z,4.38
2023-02-06T14:02:56.454Z,4.65
2023-02-06T14:05:34.544Z,5.25
2023-02-06T14:08:34.451Z,4.72
2023-02-06T14:11:19.122Z,5.07
2023-02-06T14:13:55.840Z,4.63
2023-02-06T14:16:41.930Z,4.88
2023-02-06T14:19:30.808Z,5.68
2023-02-06T14:22:17.065Z,4.90
2023-02-06T14:25:12.570Z,4.95
2023-02-06T14:27:51.977Z,6.65
2023-02-06T14:30:31.591Z,6.43
2023-02-06T14:33:26.171Z,5.80
2023-02-06T14:36:23.229Z,6.32
2023-02-06T14:39:27.052Z,5.45
2023-02-06T14:41:54.167Z,5.15
2023-02-06T14:44:29.798Z,5.85
2023-02-06T14:46:57.476Z,4.95
2023-02-06T14:49:33.997Z,4.75
2023-02-06T14:52:05.020Z,6.03
2023-02-06T14:54:38.804Z,5.05
2023-02-06T14:57:16.585Z,5.78
2023-02-06T14:59:59.379Z,4.30
2023-02-06T15:02:37.448Z,5.78
2023-02-06T15:05:06.506Z,4.47
2023-02-06T15:07:38.861Z,4.30
2023-02-06T15:10:15.013Z,4.10
2023-02-06T15:12:42.447Z,4.63
2023-02-06T15:15:19.764Z,5.55
2023-02-06T15:18:07.746Z,3.72
2023-02-06T15:20:40.414Z,4.82
2023-02-06T15:23:27.037Z,5.32
2023-02-06T15:26:12.784Z,4.75
2023-02-06T15:28:41.293Z,3.83
2023-02-06T15:31:19.153Z,4.07
2023-02-06T15:33:53.281Z,3.60
2023-02-06T15:36:28.629Z,3.90
2023-02-06T15:38:55.872Z,4.55
2023-02-06T15:41:23.076Z,3.85
2023-02-06T15:43:53.400Z,4.75
2023-02-06T15:46:20.545Z,4.53
2023-02-06T15:48:47.188Z,3.80
2023-02-06T15:51:20.409Z,3.67
2023-02-06T15:53:48.711Z,4.07
2023-02-06T15:56:30.944Z,4.07
2023-02-06T15:59:04.573Z,3.80
2023-02-06T16:01:37.171Z,3.75
2023-02-06T16:04:12.349Z,4.85
2023-02-06T16:06:39.265Z,4.18
2023-02-06T16:09:08.775Z,5.07
2023-02-06T16:11:51.052Z,3.92
2023-02-06T16:14:34.824Z,4.82
2023-02-06T16:17:22.469Z,4.57
2023-02-06T16:19:57.010Z,4.68
2023-02-06T16:22:37.383Z,5.30
2023-02-06T16:25:31.574Z,5.35
2023-02-06T16:27:59.956Z,4.25
2023-02-06T16:30:34.692Z,4.78
2023-02-06T16:33:32.915Z,4.22
2023-02-06T16:35:59.964Z,3.60
2023-02-06T16:38:26.801Z,5.60
2023-02-06T16:40:54.028Z,4.40
2023-02-06T16:43:20.806Z,3.45
2023-02-06T16:45:49.202Z,2.97
2023-02-06T16:48:18.885Z,4.30
2023-02-06T16:50:47.859Z,3.33
2023-02-06T16:53:23.542Z,4.63
2023-02-06T16:55:50.944Z,3.00
2023-02-06T16:58:24.637Z,3.60
2023-02-06T17:00:51.517Z,4.32
2023-02-06T17:03:18.424Z,2.67
2023-02-06T17:05:47.888Z,4.25
2023-02-06T17:08:23.264Z,3.05
2023-02-06T17:10:50.448Z,3.10
2023-02-06T17:13:23.662Z,2.88
2023-02-06T17:15:54.399Z,1.90
2023-02-06T17:18:23.123Z,2.75
2023-02-06T17:20:52.938Z,1.80
2023-02-06T17:23:20.225Z,2.42
2023-02-06T17:25:47.151Z,2.47
2023-02-06T17:28:18.650Z,2.25
2023-02-06T17:30:46.421Z,2.75
2023-02-06T17:33:13.210Z,2.78
2023-02-06T17:35:40.032Z,2.08
2023-02-06T17:38:09.310Z,2.70
2023-02-06T17:40:38.215Z,3.33
2023-02-06T17:43:07.123Z,3.25
2023-02-06T17:45:35.737Z,2.65
2023-02-06T17:48:02.713Z,3.15
2023-02-06T17:50:30.105Z,3.58
2023-02-06T17:52:58.969Z,3.28
2023-02-06T17:55:27.814Z,3.13
2023-02-06T17:57:55.058Z,2.17
2023-02-06T18:00:23.851Z,1.67
2023-02-06T18:02:55.258Z,3.17
2023-02-06T18:05:23.168Z,2.47
2023-02-06T18:07:51.734Z,2.58
2023-02-06T18:10:21.064Z,2.67
2023-02-06T18:12:47.940Z,3.25
2023-02-06T18:15:15.546Z,4.00
2023-02-06T18:17:43.304Z,3.25
2023-02-06T18:20:11.803Z,3.28
2023-02-06T18:22:41.684Z,4.45
2023-02-06T18:25:11.537Z,6.00
2023-02-06T18:27:40.129Z,3.45
2023-02-06T18:30:08.307Z,4.15
2023-02-06T18:32:38.213Z,4.22
2023-02-06T18:35:07.286Z,3.83
2023-02-06T18:37:35.114Z,3.20
2023-02-06T18:40:01.979Z,2.83
2023-02-06T18:42:47.452Z,4.20
2023-02-06T18:45:14.336Z,3.13
2023-02-06T18:47:42.448Z,4.32
2023-02-06T18:50:11.889Z,2.90
2023-02-06T18:52:39.516Z,3.95
2023-02-06T18:55:08.369Z,3.80
2023-02-06T18:57:35.989Z,4.75
2023-02-06T19:00:06.992Z,3.83
2023-02-06T19:02:33.781Z,3.88
2023-02-06T19:05:00.765Z,3.50
2023-02-06T19:07:27.810Z,3.25
2023-02-06T19:10:04.267Z,3.03
2023-02-06T19:12:31.319Z,4.93
2023-02-06T19:14:59.114Z,5.72
2023-02-06T19:17:27.902Z,4.75
2023-02-06T19:19:54.933Z,5.30
2023-02-06T19:22:21.776Z,5.90
2023-02-06T19:24:53.314Z,3.90
2023-02-06T19:27:21.507Z,4.93
2023-02-06T19:29:48.635Z,3.33
2023-02-06T19:32:15.401Z,4.20
2023-02-06T19:34:44.149Z,4.45
2023-02-06T19:37:12.401Z,3.40
2023-02-06T19:39:40.451Z,3.58
2023-02-06T19:42:10.121Z,2.58
2023-02-06T19:44:37.668Z,3.30
2023-02-06T19:47:04.908Z,3.80
2023-02-06T19:49:31.941Z,3.67
2023-02-06T19:51:58.892Z,2.90
2023-02-06T19:54:26.177Z,2.85
2023-02-06T19:56:53.222Z,2.30
2023-02-06T19:59:29.143Z,2.50
2023-02-06T20:02:01.729Z,4.35
2023-02-06T20:04:35.559Z,4.57
2023-02-06T20:07:03.051Z,3.63
2023-02-06T20:09:30.768Z,2.88
2023-02-06T20:11:58.011Z,3.13
2023-02-06T20:14:26.712Z,3.28
2023-02-06T20:16:53.666Z,3.00
2023-02-06T20:19:27.030Z,4.93
2023-02-06T20:21:59.607Z,3.05
2023-02-06T20:24:31.823Z,3.58
2023-02-06T20:27:03.425Z,3.00
2023-02-06T20:29:37.799Z,3.58
2023-02-06T20:32:06.568Z,4.15
2023-02-06T20:34:34.565Z,3.75
2023-02-06T20:37:01.443Z,4.40
2023-02-06T20:39:31.277Z,4.20
2023-02-06T20:41:58.471Z,3.92
2023-02-06T20:44:25.234Z,5.28
2023-02-06T20:46:52.279Z,4.82
2023-02-06T20:49:26.199Z,4.78
2023-02-06T20:51:53.539Z,3.97
2023-02-06T20:54:21.793Z,3.97
2023-02-06T20:56:49.457Z,3.78
2023-02-06T20:59:19.347Z,3.38
2023-02-06T21:01:46.572Z,3.90
2023-02-06T21:04:16.239Z,4.80
2023-02-06T21:06:44.103Z,3.22
2023-02-06T21:09:12.288Z,3.92
2023-02-06T21:11:48.122Z,4.25
2023-02-06T21:14:16.008Z,4.95
2023-02-06T21:16:44.082Z,4.13
2023-02-06T21:19:14.429Z,5.03
2023-02-06T21:21:43.703Z,5.13
2023-02-06T21:24:13.348Z,4.80
2023-02-06T21:26:40.221Z,5.72
2023-02-06T21:29:07.903Z,5.03
2023-02-06T21:31:38.346Z,5.60
2023-02-06T21:34:09.985Z,6.25
2023-02-06T21:36:39.477Z,6.07
2023-02-06T21:39:07.761Z,5.45
2023-02-06T21:41:36.469Z,5.57
2023-02-06T21:44:03.644Z,5.13
2023-02-06T21:46:31.072Z,4.65
2023-02-06T21:48:57.939Z,5.63
2023-02-06T21:51:24.841Z,6.18
2023-02-06T21:53:51.905Z,4.95
2023-02-06T21:56:25.954Z,5.72
2023-02-06T21:58:53.217Z,5.25
2023-02-06T22:01:27.845Z,5.32
2023-02-06T22:03:56.910Z,6.80
2023-02-06T22:06:24.023Z,4.88
2023-02-06T22:08:54.364Z,4.95
2023-02-06T22:11:29.823Z,4.13
2023-02-06T22:14:02.982Z,4.40
2023-02-06T22:16:30.161Z,4.88
2023-02-06T22:18:57.112Z,4.25
2023-02-06T22:21:27.454Z,5.70
2023-02-06T22:23:58.497Z,3.63
2023-02-06T22:26:26.462Z,6.28
2023-02-06T22:28:53.361Z,4.53
2023-02-06T22:31:24.652Z,4.97
2023-02-06T22:33:53.163Z,4.03
2023-02-06T22:36:24.895Z,4.28
2023-02-06T22:39:06.601Z,5.37
2023-02-06T22:41:35.582Z,4.80
2023-02-06T22:44:02.577Z,4.97
2023-02-06T22:46:37.207Z,4.28
2023-02-06T22:49:09.709Z,5.47
2023-02-06T22:51:38.507Z,3.85
2023-02-06T22:54:06.087Z,5.65
2023-02-06T22:56:43.567Z,4.43
2023-02-06T22:59:22.972Z,4.82
2023-02-06T23:01:50.605Z,4.13
2023-02-06T23:04:34.736Z,3.78
2023-02-06T23:07:02.188Z,5.07
2023-02-06T23:09:33.470Z,4.53
2023-02-06T23:12:02.136Z,3.05
2023-02-06T23:14:31.612Z,5.95
2023-02-06T23:17:01.242Z,4.22
2023-02-06T23:19:29.217Z,3.78
2023-02-06T23:21:56.086Z,5.28
2023-02-06T23:24:22.888Z,4.65
2023-02-06T23:26:51.386Z,5.40
2023-02-06T23:29:19.728Z,4.25
2023-02-06T23:31:47.540Z,4.32
2023-02-06T23:34:15.943Z,5.32
2023-02-06T23:36:43.303Z,6.47
2023-02-06T23:39:11.860Z,5.15
2023-02-06T23:41:38.960Z,4.50
2023-02-06T23:44:07.536Z,3.95
2023-02-06T23:46:36.982Z,5.75
2023-02-06T23:49:05.590Z,5.20
2023-02-06T23:51:33.035Z,4.47
2023-02-06T23:53:59.993Z,5.22
2023-02-06T23:56:30.108Z,4.15
2023-02-06T23:58:59.679Z,4.35
